x

West Dixon Entrance (46205) Wave Buoy

8:00am - Fri 19th Sep 2014 All times are PDT. -7 hours from GMT.

  • Sig Wave height 18.7ft
  • Peak Period 12s
  • Wind
    22mph, 29mph gusts
  • Sea Temp 60°f
  • Air Temp 59°f
  • Sea Pressure 1007.4mb
  • West Dixon Entrance
  • West Dixon Entrance

More Historic Weather Station data

Upgrade to MSW Pro to gain access to the past 30 days of data for over 8000 Wavebouys and Weather Stations around the globe.

Join Pro

Comparision Forecast

View Surf forecast
   
Fri 09/19 8:00am 18.5ft 12s 22 29 mph 1007.4mb 60f 59f
7:00am 17ft 12s 25 31 mph 1006.3mb 60f 59f
6:00am 17ft 13s 25 34 mph 1005.3mb 60f 60f
5:00am 17ft 12s 25 34 mph 1004.6mb 60f 60f
4:00am 17.5ft 12s 25 31 mph 1003.8mb 60f 60f
3:00am 17.5ft 12s 27 31 mph 1002.7mb 60f 60f
2:00am 16ft 11s 25 31 mph 1001.9mb 60f 60f
1:00am 16.5ft 11s 27 31 mph 1000.8mb 61f 60f
12:00am 14.5ft 11s 27 36 mph 999.3mb 61f 60f
Thu 09/18 11:00pm 13.5ft 10s 27 34 mph 998.4mb 61f 61f
10:00pm 13ft 10s 27 34 mph 997.4mb 61f 61f
9:00pm 12.5ft 9s 27 31 mph 996.3mb 61f 61f
8:00pm 12.5ft 10s 27 31 mph 995.5mb 61f 61f
7:00pm 12ft 8s 27 34 mph 994.6mb 61f 60f
6:00pm 11ft 7s 27 34 mph 993.6mb 61f 61f
5:00pm 10.5ft 8s 27 34 mph 993.1mb 61f 61f
4:00pm 10.5ft 8s 25 31 mph 992.3mb 61f 61f
3:00pm 11ft 8s 25 34 mph 991.7mb 61f 59f
2:00pm 11ft 10s 22 29 mph 991.1mb 61f 62f
1:00pm 10.5ft 8s 22 27 mph 990.9mb 61f 61f
12:00pm 10.5ft 8s 25 31 mph 990.5mb 61f 61f
11:00am 11.5ft 8s 25 31 mph 991mb 61f 61f
10:00am 12ft 7s 22 29 mph 991.5mb 61f 61f
9:00am 10.5ft 7s 31 38 mph 991.3mb 61f 60f
8:00am 10ft 7s 31
mph
991.7mb 61f 59f
7:00am 8ft 6s 31 38 mph 992.7mb 61f 58f
6:00am 7ft 18s 29 36 mph 994mb 61f 58f
5:00am 6ft 18s 27 34 mph 995.4mb 61f 59f
4:00am 5ft 18s 20 27 mph 997mb 61f 59f
3:00am 5ft 18s 20 22 mph 998.1mb 61f 59f
2:00am 5ft 18s 18 22 mph 999mb 61f 60f
1:00am 5ft 18s 16 18 mph 999.9mb 61f 60f
12:00am 4.5ft 10s 18 20 mph 1000.6mb 61f 60f
Wed 09/17 11:00pm 4.5ft 18s 18 20 mph 1000.9mb 61f 60f
10:00pm 4ft 10s 16 18 mph 1001.4mb 61f 60f
9:00pm 4.5ft 18s 13 16 mph 1002.3mb 61f 60f
8:00pm 4.5ft 10s 11 13 mph 1002.9mb 61f 59f
7:00pm 4.5ft 18s 11 13 mph 1003.6mb 61f 59f
6:00pm 4.5ft 10s 9 11 mph 1004.2mb 61f 59f
5:00pm 4.5ft 20s 11
mph
1004.8mb 61f 58f
4:00pm 5ft 20s 7 9 mph 1005.7mb 61f 59f
3:00pm 5ft 20s 7 9 mph 1006.1mb 62f 59f
2:00pm 5.5ft 20s 7 9 mph 1006.8mb 62f 59f
1:00pm 5.5ft 11s 4 7 mph 1007.3mb 62f 59f
12:00pm 6ft 10s 4 7 mph 1007.5mb 62f 58f
11:00am 5ft 11s 4
mph
1007.7mb 61f 59f
10:00am 5.5ft 20s 2 4 mph 1007.8mb 61f 58f
9:00am 5.5ft 11s 4 7 mph 1008.1mb 61f 58f
8:00am 5.5ft 11s 7 11 mph 1008.1mb 61f 58f
7:00am 5.5ft 10s 11 13 mph 1008.1mb 61f 58f
6:00am 5ft 11s 7 9 mph 1008.5mb 61f 58f
5:00am 5ft 11s 9 11 mph 1009mb 61f 59f
4:00am 6ft 11s 9 11 mph 1009.4mb 61f 59f
3:00am 6.5ft 11s 9 11 mph 1010mb 61f 59f
2:00am 6ft 11s 9 11 mph 1010.2mb 61f 59f
1:00am 6.5ft 12s 9 11 mph 1010.4mb 61f 59f
12:00am 6.5ft 12s 9 11 mph 1010.6mb 61f 59f
Tue 09/16 11:00pm 6ft 13s 11 13 mph 1010.7mb 61f 59f
10:00pm 6.5ft 12s 9 13 mph 1011mb 61f 59f
9:00pm 6ft 13s 9 11 mph 1011.1mb 61f 59f
8:00pm 6ft 13s 9 11 mph 1011.2mb 61f 59f
7:00pm 6ft 13s 11 13 mph 1011.3mb 61f 59f
6:00pm 6ft 10s 11 13 mph 1011.8mb 61f 59f
5:00pm 7ft 12s 11 16 mph 1011.9mb 61f 59f
4:00pm 7ft 12s 11 13 mph 1012mb 62f 59f
3:00pm 7ft 13s 13 16 mph 1012.2mb 61f 59f
2:00pm 8ft 12s 11 13 mph 1012.4mb 60f 59f
1:00pm 8ft 11s 9 11 mph 1012.3mb 61f 60f
12:00pm 8ft 13s 7 9 mph 1012.2mb 60f 61f
11:00am 7.5ft 13s 7 9 mph 1011.9mb 60f 61f
10:00am 7.5ft 14s 4 7 mph 1011.7mb 61f 61f
9:00am 6.5ft 14s 4
mph
1011.7mb 60f 60f
8:00am 6.5ft 14s 4 7 mph 1011.7mb 60f 60f
7:00am 6.5ft 14s 4 7 mph 1011.7mb 59f 60f
6:00am 6.5ft 14s 4
mph
1011.7mb 61f 60f
5:00am 7ft 14s 4
mph
1012mb 61f 60f
4:00am 7ft 11s 4
mph
1012.1mb 61f 60f
3:00am 8ft 14s 2 4 mph 1012.3mb 60f 60f
2:00am 8.5ft 14s 4
mph
1012.6mb 60f 60f
1:00am 9ft 14s 2 4 mph 1012.5mb 59f 60f
12:00am 9.5ft 13s 4 7 mph 1012.6mb 59f 60f
Mon 09/15 11:00pm 10.5ft 12s 4 7 mph 1012.4mb 60f 60f
10:00pm 9ft 14s 4 7 mph 1012.4mb 60f 60f
9:00pm 9ft 14s 4 7 mph 1012.5mb 60f 60f
8:00pm 8ft 14s 4 7 mph 1012.5mb 61f 60f
7:00pm 8ft 14s 4 7 mph 1012.5mb 60f 60f
6:00pm 6ft 14s 4 7 mph 1012.7mb 60f 61f
5:00pm 6ft 14s 4 7 mph 1012.9mb 60f 61f